Time;durP1;ratioP1;P1;durP2;ratioP2;P2;SDS_P1;SDS_P2;PMS_P1;PMS_P2;Temp;Humidity;BMP_temperature;BMP_pressure;BME280_temperature;BME280_humidity;BME280_pressure;Samples;Min_cycle;Max_cycle;Signal;HPM_P1;HPM_P2
2022/07/07 00:01:10;;;;;;;1.15;1.00;;;19.70;1.00;;;;;;5093546;28;20020;-79
2022/07/07 00:03:36;;;;;;;2.35;1.13;;;19.80;1.00;;;;;;5093434;28;20400;-79
2022/07/07 00:06:02;;;;;;;1.75;1.30;;;19.60;1.00;;;;;;5093269;28;20067;-79
2022/07/07 00:08:28;;;;;;;4.90;1.25;;;19.60;1.00;;;;;;5093170;28;20028;-79
2022/07/07 00:10:54;;;;;;;4.20;1.15;;;19.40;1.00;;;;;;5093010;28;20043;-79
2022/07/07 00:13:19;;;;;;;4.07;1.40;;;19.30;1.00;;;;;;5093238;28;20017;-79
2022/07/07 00:15:45;;;;;;;4.28;1.20;;;19.20;1.00;;;;;;5093261;28;20040;-78
2022/07/07 00:18:12;;;;;;;1.25;1.13;;;19.20;1.00;;;;;;5093372;28;20606;-79
2022/07/07 00:20:38;;;;;;;4.68;1.17;;;19.30;1.00;;;;;;5092991;28;20032;-79
2022/07/07 00:23:03;;;;;;;6.07;1.75;;;19.30;1.00;;;;;;5095261;28;20383;-79
2022/07/07 00:25:29;;;;;;;2.42;1.17;;;19.20;1.00;;;;;;5093086;28;20393;-79
2022/07/07 00:27:54;;;;;;;3.90;1.35;;;19.20;1.00;;;;;;5092803;28;20403;-79
2022/07/07 00:30:20;;;;;;;3.72;1.30;;;19.20;1.00;;;;;;5093064;28;20440;-79
2022/07/07 00:32:46;;;;;;;2.25;1.20;;;19.20;1.00;;;;;;5092903;28;20032;-79
2022/07/07 00:35:11;;;;;;;2.45;1.23;;;19.00;1.00;;;;;;5094520;28;20062;-79
2022/07/07 00:37:37;;;;;;;4.10;1.17;;;18.90;1.00;;;;;;5092847;28;20500;-79
2022/07/07 00:40:03;;;;;;;1.80;1.20;;;18.90;1.00;;;;;;5092667;28;20389;-79
2022/07/07 00:42:29;;;;;;;1.55;1.20;;;18.90;1.00;;;;;;5092798;28;20024;-79
2022/07/07 00:44:55;;;;;;;1.45;1.10;;;18.90;1.00;;;;;;5092816;28;20020;-79
2022/07/07 00:47:21;;;;;;;2.88;1.30;;;18.80;1.00;;;;;;5093636;28;20028;-79
2022/07/07 00:49:46;;;;;;;2.40;1.45;;;18.70;1.00;;;;;;5093233;28;20020;-79
2022/07/07 00:52:13;;;;;;;4.10;1.30;;;18.70;1.00;;;;;;5092452;28;20403;-79
2022/07/07 00:54:39;;;;;;;4.88;1.23;;;18.70;1.00;;;;;;5092527;28;20020;-78
2022/07/07 00:57:05;;;;;;;3.05;1.30;;;18.60;1.00;;;;;;5092771;28;20032;-79
2022/07/07 00:59:33;;;;;;;1.70;1.13;;;18.60;1.00;;;;;;5092647;28;20384;-79
2022/07/07 01:01:59;;;;;;;4.65;1.20;;;18.60;1.00;;;;;;5094577;28;20043;-79
2022/07/07 01:04:25;;;;;;;4.65;1.35;;;18.50;1.00;;;;;;5091984;28;20028;-79
2022/07/07 01:06:50;;;;;;;1.60;1.10;;;18.50;1.00;;;;;;5092286;28;20043;-79
2022/07/07 01:09:16;;;;;;;3.88;1.25;;;18.40;1.00;;;;;;5092359;28;20060;-79
2022/07/07 01:11:56;;;;;;;2.35;1.15;;;18.50;1.00;;;;;;5076242;28;20115;-79
2022/07/07 01:14:22;;;;;;;4.07;1.10;;;18.50;1.00;;;;;;5090573;28;20028;-79
2022/07/07 01:16:49;;;;;;;1.80;1.30;;;18.40;1.00;;;;;;5093240;28;20534;-79
2022/07/07 01:19:15;;;;;;;3.40;1.20;;;18.30;1.00;;;;;;5091734;28;20051;-80
2022/07/07 01:21:52;;;;;;;2.28;1.27;;;18.40;1.00;;;;;;5092123;28;20017;-79
2022/07/07 01:24:18;;;;;;;2.33;1.45;;;18.40;1.00;;;;;;5091682;28;20031;-79
2022/07/07 01:26:44;;;;;;;3.65;1.55;;;18.40;1.00;;;;;;5090668;28;20028;-79
2022/07/07 01:29:10;;;;;;;3.40;1.20;;;18.40;1.00;;;;;;5093696;28;20582;-79
2022/07/07 01:31:36;;;;;;;3.97;1.23;;;18.40;1.00;;;;;;5091714;28;20090;-79
2022/07/07 01:34:01;;;;;;;1.85;1.20;;;18.40;1.00;;;;;;5090927;28;20500;-78
2022/07/07 01:36:27;;;;;;;1.52;1.30;;;18.50;1.00;;;;;;5090460;28;20038;-79
2022/07/07 01:38:53;;;;;;;2.45;1.25;;;18.40;1.00;;;;;;5091615;28;20020;-79
2022/07/07 01:41:18;;;;;;;2.80;1.20;;;18.30;1.00;;;;;;5092994;28;20020;-79
2022/07/07 01:43:44;;;;;;;1.80;1.30;;;18.30;1.00;;;;;;5091169;28;20032;-79
2022/07/07 01:46:09;;;;;;;4.22;1.58;;;18.40;1.00;;;;;;5091540;28;20024;-79
2022/07/07 01:48:35;;;;;;;4.18;1.35;;;18.20;1.00;;;;;;5091129;28;20054;-78
2022/07/07 01:51:01;;;;;;;3.42;1.20;;;18.20;1.00;;;;;;5091350;28;20561;-79
2022/07/07 01:53:26;;;;;;;3.78;1.35;;;18.20;1.00;;;;;;5091794;28;20024;-78
2022/07/07 01:55:52;;;;;;;1.60;1.13;;;18.10;1.00;;;;;;5093089;28;20028;-78
2022/07/07 01:58:18;;;;;;;8.38;1.45;;;18.10;1.00;;;;;;5091341;28;20035;-79
2022/07/07 02:00:43;;;;;;;3.58;1.67;;;17.90;1.00;;;;;;5091189;28;20046;-79
2022/07/07 02:03:09;;;;;;;4.18;1.60;;;17.90;1.00;;;;;;5090842;28;20500;-79
2022/07/07 02:05:34;;;;;;;2.10;1.40;;;18.00;1.00;;;;;;5091305;28;20047;-78
2022/07/07 02:08:00;;;;;;;4.20;1.40;;;18.00;1.00;;;;;;5091842;28;20550;-78
2022/07/07 02:13:10;;;;;;;2.33;1.38;;;17.70;1.00;;;;;;5090819;28;20054;-79
2022/07/07 02:15:36;;;;;;;6.18;1.70;;;17.80;1.00;;;;;;5090994;28;20028;-79
2022/07/07 02:18:01;;;;;;;4.30;1.30;;;17.70;1.00;;;;;;5090652;28;20508;-78
2022/07/07 02:20:27;;;;;;;6.50;1.60;;;17.80;1.00;;;;;;5091473;28;20065;-78
2022/07/07 02:22:52;;;;;;;4.90;1.35;;;17.80;1.00;;;;;;5092562;28;20032;-79
2022/07/07 02:25:18;;;;;;;4.65;1.60;;;17.80;1.00;;;;;;5090776;28;20031;-79
2022/07/07 02:27:44;;;;;;;3.88;1.50;;;17.60;1.00;;;;;;5090619;28;20028;-78
2022/07/07 02:30:10;;;;;;;4.30;1.42;;;17.60;1.00;;;;;;5090862;28;20027;-79
2022/07/07 02:32:35;;;;;;;2.90;1.52;;;17.60;1.00;;;;;;5090241;28;20064;-78
2022/07/07 02:35:01;;;;;;;5.15;1.45;;;17.60;1.00;;;;;;5091436;28;20388;-78
2022/07/07 02:37:28;;;;;;;3.58;1.60;;;17.60;1.00;;;;;;5090462;28;20056;-79
2022/07/07 02:39:53;;;;;;;3.78;1.90;;;17.60;1.00;;;;;;5090605;28;20103;-78
2022/07/07 02:42:19;;;;;;;3.67;1.83;;;17.60;1.00;;;;;;5090528;28;20058;-78
2022/07/07 02:44:45;;;;;;;6.28;1.73;;;17.60;1.00;;;;;;5088787;28;20103;-78
2022/07/07 02:47:10;;;;;;;4.00;1.63;;;17.60;1.00;;;;;;5092357;28;20040;-79
2022/07/07 02:49:36;;;;;;;7.55;1.65;;;17.60;1.00;;;;;;5090365;28;20404;-78
2022/07/07 02:52:04;;;;;;;2.92;1.70;;;17.50;1.00;;;;;;5090285;28;20044;-79
2022/07/07 02:54:30;;;;;;;4.32;1.50;;;17.50;1.00;;;;;;5090460;28;20035;-78
2022/07/07 02:56:55;;;;;;;3.72;1.52;;;17.40;1.00;;;;;;5090439;28;20028;-79
2022/07/07 02:59:21;;;;;;;3.80;1.40;;;17.50;1.00;;;;;;5091712;28;20024;-79
2022/07/07 03:01:46;;;;;;;4.40;1.80;;;17.40;1.00;;;;;;5090925;28;20496;-79
2022/07/07 03:04:12;;;;;;;4.85;1.80;;;17.60;1.00;;;;;;5090128;28;20035;-78
2022/07/07 03:06:38;;;;;;;5.32;1.85;;;17.50;1.00;;;;;;5090220;28;20032;-79
2022/07/07 03:09:03;;;;;;;3.00;1.77;;;17.40;1.00;;;;;;5090419;28;20053;-78
2022/07/07 03:11:29;;;;;;;6.03;1.67;;;17.40;1.00;;;;;;5090168;28;20044;-78
2022/07/07 03:13:55;;;;;;;4.38;1.73;;;17.30;1.00;;;;;;5092356;28;20031;-79
2022/07/07 03:16:20;;;;;;;6.10;1.67;;;17.30;1.00;;;;;;5089802;28;20032;-78
2022/07/07 03:18:46;;;;;;;5.53;1.83;;;17.20;1.00;;;;;;5090171;28;20108;-78
2022/07/07 03:21:11;;;;;;;3.03;1.70;;;17.40;1.00;;;;;;5090151;28;20032;-78
2022/07/07 03:23:37;;;;;;;2.85;1.60;;;17.30;1.00;;;;;;5089602;28;20028;-79
2022/07/07 03:26:03;;;;;;;7.05;1.90;;;17.20;1.00;;;;;;5090660;28;20541;-79
2022/07/07 03:28:28;;;;;;;4.22;1.90;;;17.30;1.00;;;;;;5089316;28;20044;-78
2022/07/07 03:30:54;;;;;;;6.35;2.00;;;17.20;1.00;;;;;;5089556;28;20564;-79
2022/07/07 03:33:19;;;;;;;4.63;1.85;;;17.20;1.00;;;;;;5089967;28;20082;-79
2022/07/07 03:35:45;;;;;;;8.77;1.63;;;17.30;1.00;;;;;;5090151;28;20488;-78
2022/07/07 03:38:11;;;;;;;7.18;2.17;;;17.10;1.00;;;;;;5092037;28;20020;-78
2022/07/07 03:40:37;;;;;;;3.25;1.73;;;17.00;1.00;;;;;;5089938;28;20024;-78
2022/07/07 03:43:02;;;;;;;6.22;2.25;;;17.10;1.00;;;;;;5089878;28;20024;-78
2022/07/07 03:45:28;;;;;;;3.55;1.60;;;17.10;1.00;;;;;;5089611;28;20035;-79
2022/07/07 03:47:54;;;;;;;4.07;1.95;;;16.90;1.00;;;;;;5089488;28;20107;-78
2022/07/07 03:50:19;;;;;;;4.20;1.80;;;17.00;1.00;;;;;;5091148;28;20024;-78
2022/07/07 03:52:45;;;;;;;3.58;2.00;;;17.10;1.00;;;;;;5090132;28;20460;-79
2022/07/07 03:55:11;;;;;;;3.85;1.98;;;16.90;1.00;;;;;;5088201;28;20031;-78
2022/07/07 03:57:38;;;;;;;3.50;1.70;;;16.90;1.00;;;;;;5092390;28;20500;-79
2022/07/07 04:00:04;;;;;;;6.28;2.03;;;16.60;1.00;;;;;;5093252;28;20027;-78
2022/07/07 04:02:30;;;;;;;3.13;1.70;;;16.50;1.00;;;;;;5093792;28;20056;-79
2022/07/07 04:04:55;;;;;;;5.38;1.85;;;16.70;1.00;;;;;;5093049;28;20046;-79
2022/07/07 04:07:21;;;;;;;3.22;1.60;;;16.90;1.00;;;;;;5093075;28;20032;-79
2022/07/07 04:09:46;;;;;;;4.55;1.88;;;16.90;1.00;;;;;;5093535;28;20131;-78
2022/07/07 04:12:12;;;;;;;6.38;1.65;;;16.90;1.00;;;;;;5093120;28;20478;-79
2022/07/07 04:14:38;;;;;;;5.82;1.85;;;16.90;1.00;;;;;;5092551;28;20020;-79
2022/07/07 04:17:04;;;;;;;6.57;1.95;;;16.90;1.00;;;;;;5094445;28;20028;-78
2022/07/07 04:19:30;;;;;;;3.95;1.98;;;16.80;1.00;;;;;;5092319;28;20123;-79
2022/07/07 04:21:55;;;;;;;6.07;1.67;;;16.80;1.00;;;;;;5093043;28;20108;-79
2022/07/07 04:24:21;;;;;;;3.03;1.52;;;16.80;1.00;;;;;;5092706;28;20032;-79
2022/07/07 04:26:47;;;;;;;2.45;1.70;;;16.80;1.00;;;;;;5092751;28;20028;-79
2022/07/07 04:29:12;;;;;;;3.88;1.83;;;16.80;1.00;;;;;;5094501;28;20036;-82
2022/07/07 04:31:43;;;;;;;5.30;1.50;;;16.90;1.00;;;;;;5092764;28;20394;-80
2022/07/07 04:34:09;;;;;;;4.90;2.00;;;16.90;1.00;;;;;;5092471;28;20542;-80
2022/07/07 04:36:35;;;;;;;3.63;1.52;;;17.10;1.00;;;;;;5092612;28;20040;-78
2022/07/07 04:39:00;;;;;;;2.30;1.80;;;17.00;1.00;;;;;;5092285;28;20108;-78
2022/07/07 04:41:26;;;;;;;6.70;1.90;;;17.00;1.00;;;;;;5093406;28;20071;-79
2022/07/07 04:43:52;;;;;;;6.05;1.80;;;17.00;1.00;;;;;;5092393;28;20013;-80
2022/07/07 04:46:17;;;;;;;2.75;1.88;;;17.00;1.00;;;;;;5092567;28;20454;-80
2022/07/07 04:48:43;;;;;;;6.57;1.75;;;17.10;1.00;;;;;;5092691;28;20030;-80
2022/07/07 04:51:09;;;;;;;5.57;1.80;;;17.10;1.00;;;;;;5092591;28;20500;-80
2022/07/07 04:53:34;;;;;;;5.00;2.35;;;17.10;1.00;;;;;;5092578;28;20085;-80
2022/07/07 04:56:00;;;;;;;3.92;1.98;;;17.20;1.00;;;;;;5094062;28;20492;-80
2022/07/07 04:58:25;;;;;;;3.38;1.75;;;17.20;1.00;;;;;;5092357;28;20024;-80
2022/07/07 05:00:51;;;;;;;4.47;1.80;;;17.10;1.00;;;;;;5092377;28;20088;-80
2022/07/07 05:03:16;;;;;;;5.28;1.98;;;17.30;1.00;;;;;;5092328;28;20374;-80
2022/07/07 05:05:42;;;;;;;8.02;2.42;;;17.30;1.00;;;;;;5092469;28;20055;-80
2022/07/07 05:08:08;;;;;;;5.93;1.83;;;17.30;1.00;;;;;;5093529;28;20035;-80
2022/07/07 05:10:33;;;;;;;4.70;2.13;;;17.30;1.00;;;;;;5091857;28;20032;-80
2022/07/07 05:12:59;;;;;;;5.22;2.20;;;17.40;1.00;;;;;;5092136;28;20039;-80
2022/07/07 05:15:25;;;;;;;8.20;2.05;;;17.30;1.00;;;;;;5092044;28;20408;-80
2022/07/07 05:17:50;;;;;;;5.18;2.03;;;17.40;1.00;;;;;;5092282;28;20024;-80
2022/07/07 05:20:16;;;;;;;6.05;1.92;;;17.30;1.00;;;;;;5093807;28;20027;-80
2022/07/07 05:22:41;;;;;;;5.00;2.25;;;17.40;1.00;;;;;;5090837;28;20024;-80
2022/07/07 05:25:07;;;;;;;3.22;1.90;;;17.40;1.00;;;;;;5091654;28;20467;-80
2022/07/07 05:27:33;;;;;;;3.42;2.22;;;17.30;1.00;;;;;;5091586;28;20040;-80
2022/07/07 05:29:58;;;;;;;6.78;2.03;;;17.20;1.00;;;;;;5090546;28;20111;-80
2022/07/07 05:32:24;;;;;;;4.07;2.10;;;17.20;1.00;;;;;;5092522;28;20032;-80
2022/07/07 05:34:50;;;;;;;5.78;1.95;;;17.20;1.00;;;;;;5093276;28;20630;-80
2022/07/07 05:37:15;;;;;;;6.15;2.13;;;17.20;1.00;;;;;;5091665;28;20056;-80
2022/07/07 05:39:41;;;;;;;4.43;2.15;;;17.20;1.00;;;;;;5091368;28;20016;-80
2022/07/07 05:42:07;;;;;;;4.93;2.00;;;17.30;1.00;;;;;;5091718;28;20020;-80
2022/07/07 05:44:32;;;;;;;7.75;2.22;;;17.40;1.00;;;;;;5091766;28;20491;-80
2022/07/07 05:46:58;;;;;;;3.55;1.90;;;17.50;1.00;;;;;;5093731;28;20032;-80
2022/07/07 05:49:23;;;;;;;5.85;1.92;;;17.50;1.00;;;;;;5090141;28;20024;-80
2022/07/07 05:51:49;;;;;;;6.50;2.30;;;17.50;1.00;;;;;;5091175;28;20451;-85
2022/07/07 05:54:15;;;;;;;5.25;2.10;;;17.50;1.00;;;;;;5091117;28;20024;-81
2022/07/07 05:56:40;;;;;;;3.60;2.13;;;17.40;1.00;;;;;;5091394;28;20090;-80
2022/07/07 05:59:06;;;;;;;5.95;2.55;;;17.20;1.00;;;;;;5093556;28;20024;-80
2022/07/07 06:01:31;;;;;;;2.97;2.00;;;17.30;1.00;;;;;;5089718;28;20081;-80
2022/07/07 06:03:57;;;;;;;4.35;1.75;;;17.40;1.00;;;;;;5091093;28;20020;-80
2022/07/07 06:06:23;;;;;;;4.85;2.28;;;17.60;1.00;;;;;;5091233;28;20040;-80
2022/07/07 06:08:48;;;;;;;5.75;2.28;;;17.60;1.00;;;;;;5090916;28;20025;-80
2022/07/07 06:11:14;;;;;;;5.57;2.00;;;17.60;1.00;;;;;;5092988;28;20044;-80
2022/07/07 06:13:39;;;;;;;9.10;2.55;;;17.70;1.00;;;;;;5091197;28;20388;-80
2022/07/07 06:16:05;;;;;;;10.68;2.42;;;17.50;1.00;;;;;;5090854;28;20035;-80
2022/07/07 06:18:31;;;;;;;7.35;2.15;;;17.60;1.00;;;;;;5090956;28;20507;-80
2022/07/07 06:20:57;;;;;;;6.40;1.90;;;17.70;1.00;;;;;;5090851;28;20024;-80
2022/07/07 06:23:22;;;;;;;5.05;2.00;;;17.70;1.00;;;;;;5090281;28;20030;-80
2022/07/07 06:25:48;;;;;;;7.65;2.20;;;17.70;1.00;;;;;;5092117;28;20067;-79
2022/07/07 06:28:13;;;;;;;5.38;1.88;;;17.80;1.00;;;;;;5090526;28;20539;-79
2022/07/07 06:30:39;;;;;;;4.47;2.00;;;17.80;1.00;;;;;;5090658;28;20081;-79
2022/07/07 06:33:05;;;;;;;5.07;2.05;;;17.70;1.00;;;;;;5090790;28;20028;-80
2022/07/07 06:35:30;;;;;;;3.60;1.98;;;17.60;1.00;;;;;;5090794;28;20496;-79
2022/07/07 06:37:57;;;;;;;4.68;1.80;;;17.90;1.00;;;;;;5091127;28;20127;-80
2022/07/07 06:40:23;;;;;;;3.95;2.00;;;17.90;1.00;;;;;;5089107;28;20492;-80
2022/07/07 06:42:49;;;;;;;3.35;2.10;;;17.80;1.00;;;;;;5090498;28;20024;-80
2022/07/07 06:45:14;;;;;;;3.72;1.77;;;18.00;1.00;;;;;;5090692;28;20032;-80
2022/07/07 06:47:40;;;;;;;4.43;1.73;;;18.00;1.00;;;;;;5090659;28;20060;-80
2022/07/07 06:50:06;;;;;;;3.00;1.90;;;18.10;1.00;;;;;;5092632;28;20016;-80
2022/07/07 06:52:32;;;;;;;3.15;1.90;;;18.10;1.00;;;;;;5089929;28;20543;-80
2022/07/07 06:54:58;;;;;;;9.35;2.63;;;18.10;1.00;;;;;;5090272;28;20100;-79
2022/07/07 06:57:23;;;;;;;9.63;2.20;;;18.30;1.00;;;;;;5090380;28;20071;-80
2022/07/07 06:59:49;;;;;;;4.60;2.30;;;18.30;1.00;;;;;;5090504;28;20481;-80
2022/07/07 07:02:14;;;;;;;3.60;1.83;;;18.30;1.00;;;;;;5092169;28;20032;-80
2022/07/07 07:04:40;;;;;;;3.90;2.08;;;18.30;1.00;;;;;;5090638;28;20556;-80
2022/07/07 07:07:06;;;;;;;4.50;1.70;;;18.30;1.00;;;;;;5089809;28;20028;-80
2022/07/07 07:09:31;;;;;;;6.10;2.10;;;18.30;1.00;;;;;;5090312;28;20024;-80
2022/07/07 07:11:57;;;;;;;3.10;1.98;;;18.40;1.00;;;;;;5090164;28;20411;-79
2022/07/07 07:14:23;;;;;;;4.45;2.00;;;18.40;1.00;;;;;;5091323;28;20151;-79
2022/07/07 07:16:48;;;;;;;6.10;2.10;;;18.50;1.00;;;;;;5091439;28;20061;-80
2022/07/07 07:19:14;;;;;;;3.83;2.10;;;18.50;1.00;;;;;;5088770;28;20024;-80
2022/07/07 07:21:40;;;;;;;3.17;1.90;;;18.60;1.00;;;;;;5089666;28;20023;-80
2022/07/07 07:24:06;;;;;;;2.97;2.17;;;18.70;1.00;;;;;;5090333;28;20144;-79
2022/07/07 07:26:33;;;;;;;4.22;2.30;;;18.70;1.00;;;;;;5090191;28;20028;-80
2022/07/07 07:28:59;;;;;;;4.20;2.15;;;18.90;1.00;;;;;;5091986;28;20105;-79
2022/07/07 07:31:25;;;;;;;2.50;1.98;;;18.90;1.00;;;;;;5090834;28;20594;-80
2022/07/07 07:33:50;;;;;;;4.32;1.90;;;19.30;1.00;;;;;;5094011;28;20054;-80
2022/07/07 07:36:16;;;;;;;5.60;1.95;;;19.30;1.00;;;;;;5093815;28;20031;-80
2022/07/07 07:38:43;;;;;;;5.60;1.90;;;19.30;1.00;;;;;;5094051;28;20032;-80
2022/07/07 07:41:11;;;;;;;2.63;1.70;;;19.30;1.00;;;;;;5096089;28;20065;-80
2022/07/07 07:43:37;;;;;;;4.25;1.90;;;19.40;1.00;;;;;;5093826;28;20032;-80
2022/07/07 07:46:06;;;;;;;5.97;2.03;;;19.30;1.00;;;;;;5093755;28;20027;-80
2022/07/07 07:48:31;;;;;;;4.47;2.00;;;19.30;1.00;;;;;;5093883;28;20048;-80
2022/07/07 07:50:57;;;;;;;6.38;2.15;;;19.40;1.00;;;;;;5093347;28;20456;-80
2022/07/07 07:53:23;;;;;;;5.07;2.15;;;19.60;1.00;;;;;;5094658;28;20028;-80
2022/07/07 07:55:50;;;;;;;6.97;2.08;;;19.60;1.00;;;;;;5123385;27;20084;-80
2022/07/07 07:58:16;;;;;;;8.40;2.05;;;19.70;1.00;;;;;;5092043;28;20497;-80
2022/07/07 08:00:41;;;;;;;3.53;1.88;;;19.70;1.00;;;;;;5093629;28;20108;-80
2022/07/07 08:03:07;;;;;;;2.03;1.60;;;19.80;1.00;;;;;;5093632;28;20032;-80
2022/07/07 08:05:32;;;;;;;3.80;1.80;;;19.90;1.00;;;;;;5093321;28;20043;-80
2022/07/07 08:07:58;;;;;;;3.40;1.77;;;19.90;1.00;;;;;;5095668;28;20503;-80
2022/07/07 08:10:24;;;;;;;2.78;1.67;;;20.00;1.00;;;;;;5093490;28;20020;-80
2022/07/07 08:12:50;;;;;;;5.53;2.00;;;20.20;1.00;;;;;;5093249;28;20040;-80
2022/07/07 08:15:16;;;;;;;3.13;1.75;;;20.30;1.00;;;;;;5093406;28;20020;-80
2022/07/07 08:17:42;;;;;;;4.05;2.10;;;20.20;1.00;;;;;;5093275;28;20127;-80
2022/07/07 08:20:09;;;;;;;3.25;1.63;;;20.30;1.00;;;;;;5095199;28;20444;-80
2022/07/07 08:22:35;;;;;;;4.78;2.00;;;20.40;1.00;;;;;;5093064;28;20032;-80
2022/07/07 08:25:01;;;;;;;5.15;1.80;;;20.50;1.00;;;;;;5093106;28;20400;-80
2022/07/07 08:27:26;;;;;;;3.92;1.73;;;20.60;1.00;;;;;;5092944;28;20032;-79
2022/07/07 08:29:52;;;;;;;4.72;1.65;;;20.70;1.00;;;;;;5093227;28;20032;-80
2022/07/07 08:32:18;;;;;;;3.45;1.73;;;20.80;1.00;;;;;;5094316;28;20079;-80
2022/07/07 08:34:44;;;;;;;5.72;2.08;;;20.80;1.00;;;;;;5093390;28;20473;-80
2022/07/07 08:37:10;;;;;;;4.93;1.60;;;20.90;1.00;;;;;;5091608;28;20047;-80
2022/07/07 08:39:36;;;;;;;5.30;1.88;;;21.10;1.00;;;;;;5091759;28;20032;-80
2022/07/07 08:42:02;;;;;;;4.55;1.60;;;21.30;1.00;;;;;;5092841;28;20077;-80
2022/07/07 08:44:28;;;;;;;3.95;1.67;;;21.10;1.00;;;;;;5091943;28;20414;-80
2022/07/07 08:46:54;;;;;;;2.58;1.63;;;21.10;1.00;;;;;;5094718;28;20032;-80
2022/07/07 08:49:19;;;;;;;4.15;1.77;;;21.30;1.00;;;;;;5092124;28;20452;-80
2022/07/07 08:51:46;;;;;;;3.78;1.63;;;21.40;1.00;;;;;;5092481;28;20032;-80
2022/07/07 08:54:14;;;;;;;4.10;1.63;;;21.60;1.00;;;;;;5093020;28;20051;-80
2022/07/07 08:56:41;;;;;;;4.60;1.88;;;21.50;1.00;;;;;;5092669;28;20020;-80
2022/07/07 08:59:13;;;;;;;2.78;1.55;;;21.60;1.00;;;;;;5094679;28;20062;-80
2022/07/07 09:01:39;;;;;;;3.75;1.60;;;21.90;1.00;;;;;;5092503;28;20484;-80
2022/07/07 09:04:05;;;;;;;4.85;1.70;;;22.00;1.00;;;;;;5091988;28;20039;-80
2022/07/07 09:06:31;;;;;;;6.72;1.70;;;22.00;1.00;;;;;;5092451;28;20032;-82
2022/07/07 09:08:58;;;;;;;2.72;1.70;;;22.10;1.00;;;;;;5092533;28;20028;-80
2022/07/07 09:11:25;;;;;;;2.47;1.70;;;22.10;1.00;;;;;;5093242;28;20119;-80
2022/07/07 09:13:51;;;;;;;4.30;1.75;;;22.10;1.00;;;;;;5093648;28;20031;-80
2022/07/07 09:16:17;;;;;;;3.88;1.75;;;22.20;1.00;;;;;;5090650;28;20017;-80
2022/07/07 09:18:44;;;;;;;4.05;1.38;;;22.40;1.00;;;;;;5091802;28;20061;-81
2022/07/07 09:21:31;;;;;;;4.22;1.85;;;22.50;1.00;;;;;;5092238;28;20019;-80
2022/07/07 09:23:59;;;;;;;5.68;1.80;;;22.50;1.00;;;;;;5077720;28;20054;-80
2022/07/07 09:26:41;;;;;;;2.38;1.70;;;22.50;1.00;;;;;;5092924;28;20102;-80
2022/07/07 09:29:17;;;;;;;10.30;1.90;;;22.70;1.00;;;;;;5093281;28;20083;-80
2022/07/07 09:31:55;;;;;;;3.42;1.55;;;22.80;1.00;;;;;;5090545;28;20043;-80
2022/07/07 09:34:23;;;;;;;4.30;1.63;;;22.80;1.00;;;;;;5091802;28;20032;-80
2022/07/07 09:39:49;;;;;;;2.53;1.77;;;23.10;1.00;;;;;;5091926;28;20073;-80
2022/07/07 09:42:26;;;;;;;2.97;1.50;;;23.10;1.00;;;;;;5090489;28;20043;-83
2022/07/07 09:45:01;;;;;;;3.95;1.80;;;23.10;1.00;;;;;;5076666;28;20047;-81
2022/07/07 09:47:27;;;;;;;4.38;1.83;;;23.20;1.00;;;;;;5091933;28;20050;-80
2022/07/07 09:50:22;;;;;;;4.65;1.83;;;23.40;1.00;;;;;;5093450;28;20020;-81
2022/07/07 09:52:49;;;;;;;3.13;2.05;;;23.20;1.00;;;;;;5079891;28;20050;-80
2022/07/07 09:55:14;;;;;;;4.78;1.70;;;23.40;1.00;;;;;;5090989;28;20472;-80
2022/07/07 09:57:42;;;;;;;2.78;1.60;;;23.50;1.00;;;;;;5091260;28;20024;-80
2022/07/07 10:00:08;;;;;;;3.25;1.80;;;23.40;1.00;;;;;;5091414;28;20024;-80
2022/07/07 10:02:36;;;;;;;4.57;1.60;;;23.40;1.00;;;;;;5091271;28;20422;-80
2022/07/07 10:05:03;;;;;;;3.33;1.60;;;23.60;1.00;;;;;;5093490;28;20035;-81
2022/07/07 10:07:32;;;;;;;5.43;1.67;;;23.50;1.00;;;;;;5091139;28;20062;-80
2022/07/07 10:10:12;;;;;;;3.85;1.73;;;23.70;1.00;;;;;;5091078;28;20435;-80
2022/07/07 10:12:45;;;;;;;3.08;1.80;;;23.80;1.00;;;;;;5090959;28;20118;-80
2022/07/07 10:15:11;;;;;;;1.88;1.58;;;23.90;1.00;;;;;;5090862;28;20020;-80
2022/07/07 10:17:38;;;;;;;3.17;1.85;;;23.90;1.00;;;;;;5091216;28;20086;-80
2022/07/07 10:20:07;;;;;;;5.93;2.00;;;24.00;1.00;;;;;;5092998;28;20035;-80
2022/07/07 10:22:35;;;;;;;3.92;1.70;;;23.80;1.00;;;;;;5089404;28;20032;-80
2022/07/07 10:25:05;;;;;;;4.45;1.77;;;24.10;1.00;;;;;;5090908;28;20058;-80
2022/07/07 10:27:30;;;;;;;3.15;1.73;;;24.30;1.00;;;;;;5090594;28;20035;-80
2022/07/07 10:29:58;;;;;;;3.70;1.42;;;24.30;1.00;;;;;;5090556;28;20036;-80
2022/07/07 10:32:40;;;;;;;4.13;1.50;;;24.50;1.00;;;;;;5091676;28;20038;-80
2022/07/07 10:35:13;;;;;;;2.88;1.73;;;24.50;1.00;;;;;;5092300;28;20048;-80
2022/07/07 10:37:47;;;;;;;2.30;1.48;;;24.50;1.00;;;;;;5090813;28;20062;-80
2022/07/07 10:40:21;;;;;;;1.67;1.58;;;24.50;1.00;;;;;;5090658;28;20400;-80
2022/07/07 10:42:52;;;;;;;3.03;1.50;;;24.50;1.00;;;;;;5090610;28;20110;-80
2022/07/07 10:45:19;;;;;;;2.67;1.60;;;24.40;1.00;;;;;;5088866;28;20036;-80
2022/07/07 10:47:45;;;;;;;2.30;1.60;;;24.30;1.00;;;;;;5090977;28;20557;-80
2022/07/07 10:50:25;;;;;;;3.42;1.80;;;24.50;1.00;;;;;;5092729;28;20077;-80
2022/07/07 10:52:51;;;;;;;4.50;1.50;;;24.50;1.00;;;;;;5091685;28;20055;-80
2022/07/07 10:55:16;;;;;;;3.05;1.55;;;24.80;1.00;;;;;;5090381;28;20059;-80
2022/07/07 10:57:45;;;;;;;3.13;1.55;;;24.70;1.00;;;;;;5090594;28;20032;-80
2022/07/07 11:00:15;;;;;;;3.20;1.80;;;25.00;1.00;;;;;;5090124;28;20112;-80
2022/07/07 11:02:48;;;;;;;2.45;1.52;;;25.10;1.00;;;;;;5090472;28;20382;-80
2022/07/07 11:05:14;;;;;;;5.30;1.75;;;25.00;1.00;;;;;;5087087;28;20016;-80
2022/07/07 11:08:03;;;;;;;5.30;1.60;;;24.90;1.00;;;;;;5089857;28;20089;-81
2022/07/07 11:10:51;;;;;;;4.32;1.63;;;24.90;1.00;;;;;;5090350;28;20038;-80
2022/07/07 11:13:16;;;;;;;6.43;1.58;;;25.00;1.00;;;;;;5088457;28;20113;-80
2022/07/07 11:15:47;;;;;;;2.45;1.50;;;25.00;1.00;;;;;;5090147;28;20048;-80
2022/07/07 11:18:18;;;;;;;2.95;1.70;;;25.20;1.00;;;;;;5090238;28;20035;-80
2022/07/07 11:21:02;;;;;;;2.03;1.40;;;25.40;1.00;;;;;;5074252;28;20400;-80
2022/07/07 11:23:42;;;;;;;2.40;1.50;;;25.30;1.00;;;;;;5088565;28;20028;-80
2022/07/07 11:26:08;;;;;;;1.80;1.40;;;25.20;1.00;;;;;;5091915;28;20028;-80
2022/07/07 11:28:36;;;;;;;2.85;1.42;;;25.30;1.00;;;;;;5089488;28;20044;-80
2022/07/07 11:31:04;;;;;;;3.35;1.50;;;25.50;1.00;;;;;;5089907;28;20031;-81
2022/07/07 11:33:30;;;;;;;3.33;1.42;;;25.70;1.00;;;;;;5089966;28;20036;-80
2022/07/07 11:35:55;;;;;;;4.68;1.80;;;25.70;1.00;;;;;;5090108;28;20039;-81
2022/07/07 11:38:27;;;;;;;5.28;1.83;;;25.70;1.00;;;;;;5091427;28;20028;-83
2022/07/07 11:40:53;;;;;;;3.17;1.48;;;25.70;1.00;;;;;;5091492;28;20089;-81
2022/07/07 11:43:24;;;;;;;3.63;1.35;;;25.80;1.00;;;;;;5089568;28;20568;-81
2022/07/07 11:45:49;;;;;;;2.38;1.60;;;25.90;1.00;;;;;;5089996;28;20116;-81
2022/07/07 11:48:15;;;;;;;3.03;1.40;;;25.70;1.00;;;;;;5090051;28;20433;-81
2022/07/07 11:50:41;;;;;;;10.77;1.50;;;26.00;1.00;;;;;;5089427;28;20032;-81
2022/07/07 11:53:07;;;;;;;2.30;1.40;;;25.80;1.00;;;;;;5091157;28;20039;-81
2022/07/07 11:55:33;;;;;;;2.95;1.20;;;26.10;1.00;;;;;;5089803;28;20028;-81
2022/07/07 11:58:01;;;;;;;3.40;1.25;;;26.50;1.00;;;;;;5089431;28;20020;-80
2022/07/07 12:00:29;;;;;;;2.80;1.20;;;26.60;1.00;;;;;;5089894;28;20031;-81
2022/07/07 12:03:00;;;;;;;3.83;1.33;;;27.00;1.00;;;;;;5089907;28;20028;-81
2022/07/07 12:05:28;;;;;;;2.85;1.20;;;27.20;1.00;;;;;;5090439;28;20028;-81
2022/07/07 12:08:02;;;;;;;3.13;1.60;;;28.40;1.00;;;;;;5091522;28;20392;-81
2022/07/07 12:10:29;;;;;;;4.57;1.40;;;30.20;1.00;;;;;;5089859;28;20021;-80
2022/07/07 12:13:02;;;;;;;4.18;1.27;;;32.00;1.00;;;;;;5089322;28;20538;-81
2022/07/07 12:15:38;;;;;;;1.85;1.30;;;32.90;1.00;;;;;;5089586;28;20026;-81
2022/07/07 12:18:06;;;;;;;1.27;1.10;;;33.70;1.00;;;;;;5091465;28;20066;-81
2022/07/07 12:20:32;;;;;;;2.22;1.10;;;33.50;1.00;;;;;;5093436;28;20077;-81
2022/07/07 12:23:00;;;;;;;2.40;1.20;;;34.00;1.00;;;;;;5095458;28;20028;-81
2022/07/07 12:25:31;;;;;;;2.95;1.25;;;34.90;1.00;;;;;;5092928;28;20074;-80
2022/07/07 12:28:05;;;;;;;3.05;1.17;;;35.10;1.00;;;;;;5093046;28;20071;-81
2022/07/07 12:30:52;;;;;;;2.65;1.20;;;34.80;1.00;;;;;;5091770;28;20255;-81
2022/07/07 12:33:29;;;;;;;3.13;1.30;;;34.80;1.00;;;;;;5093012;28;20043;-81
2022/07/07 12:35:59;;;;;;;2.50;1.23;;;36.20;1.00;;;;;;5078518;28;20484;-81
2022/07/07 12:38:58;;;;;;;3.45;1.27;;;36.40;1.00;;;;;;5093997;28;20032;-81
2022/07/07 12:41:30;;;;;;;2.10;1.23;;;35.90;1.00;;;;;;4989259;28;20042;-81
2022/07/07 12:44:10;;;;;;;3.25;1.48;;;35.00;1.00;;;;;;4975926;28;20038;-82
2022/07/07 12:46:36;;;;;;;4.20;1.50;;;35.90;1.00;;;;;;4976054;28;20210;-81
2022/07/07 12:49:03;;;;;;;3.85;1.42;;;36.00;1.00;;;;;;4976000;28;20458;-81
2022/07/07 12:51:30;;;;;;;1.90;1.23;;;35.30;1.00;;;;;;4975839;28;20078;-81
2022/07/07 12:53:56;;;;;;;6.25;1.30;;;35.80;1.00;;;;;;4975880;28;20040;-81
2022/07/07 12:56:39;;;;;;;3.40;1.38;;;34.50;1.00;;;;;;4973661;28;20039;-81
2022/07/07 12:59:19;;;;;;;4.80;1.55;;;34.50;1.00;;;;;;4977889;28;20113;-81
2022/07/07 13:01:52;;;;;;;4.28;1.10;;;34.90;1.00;;;;;;4978667;28;20049;-81
2022/07/07 13:04:19;;;;;;;3.47;1.30;;;35.00;1.00;;;;;;4978455;28;20256;-81